DRRT

Tahoua Airport

Tahoua, Niger
METAR DRRT 191800Z 24012KT CAVOK 37/19 Q1007
Observed Flight Rules
Jun-19 @ 18:00 UTC (2 hours ago) Visual Flight Rules
Wind Visibility Clouds
240° at 12 knots 10,000+ meters
  • Clear skies
Temperatures Readings
Current 37°C / 99°F
Dewpoint 19°C / 66°F
Humidity 35%
Altimeter 29.73" Hg
Pressure 1007 hPa
Elevation 391
METAR DRRT 191800Z 24012KT CAVOK 37/19 Q1007
Observed Flight Rules
Jun-19 @ 18:00 UTC
(2 hours ago)
VFR
Wind Visibility
240° at 12 knots 10,000+ meters
Clouds
  • Clear skies
Temperature Dewpoint
37°C / 99°F 19°C / 66°F
Humidity Altimeter Pressure
35% 29.73" Hg 1007 hPa